createdAt,value
2022-12-17T00:02:14.485Z,100521.16
2022-12-17T00:05:00.369Z,100531.69
2022-12-17T00:07:46.375Z,100523.06
2022-12-17T00:10:33.967Z,100523.19
2022-12-17T00:13:34.636Z,100523.19
2022-12-17T00:16:20.809Z,100531.25
2022-12-17T00:19:12.365Z,100529.59
2022-12-17T00:21:58.016Z,100528.78
2022-12-17T00:24:56.399Z,100531.38
2022-12-17T00:27:43.512Z,100529.88
2022-12-17T00:30:31.851Z,100535.19
2022-12-17T00:33:17.822Z,100530.13
2022-12-17T00:36:09.977Z,100532.03
2022-12-17T00:38:56.059Z,100535.56
2022-12-17T00:41:42.490Z,100544.44
2022-12-17T00:44:30.763Z,100547.94
2022-12-17T00:47:16.830Z,100559.28
2022-12-17T00:50:02.773Z,100552.56
2022-12-17T00:52:48.926Z,100551.91
2022-12-17T00:55:35.173Z,100556.25
2022-12-17T00:58:21.537Z,100562.38
2022-12-17T01:01:08.644Z,100556.63
2022-12-17T01:03:54.746Z,100557.47
2022-12-17T01:06:42.657Z,100558.53
2022-12-17T01:09:28.790Z,100562.09
2022-12-17T01:12:14.830Z,100566.44
2022-12-17T01:15:00.720Z,100579.53
2022-12-17T01:17:53.067Z,100586.59
2022-12-17T01:20:41.907Z,100590.94
2022-12-17T01:23:28.309Z,100590.28
2022-12-17T01:26:15.419Z,100591.34
2022-12-17T01:29:01.768Z,100595.69
2022-12-17T01:31:48.284Z,100601.00
2022-12-17T01:34:37.175Z,100602.09
2022-12-17T01:37:19.607Z,100602.09
2022-12-17T01:40:05.602Z,100603.00
2022-12-17T01:42:57.592Z,100604.94
2022-12-17T01:45:45.409Z,100613.66
2022-12-17T01:48:35.714Z,100624.13
2022-12-17T01:51:23.749Z,100626.84
2022-12-17T01:54:12.840Z,100627.78
2022-12-17T01:57:01.217Z,100620.97
2022-12-17T02:00:04.000Z,100619.47
2022-12-17T02:03:01.326Z,100632.53
2022-12-17T02:05:59.247Z,100626.66
2022-12-17T02:08:57.200Z,100621.72
2022-12-17T02:11:53.442Z,100614.06
2022-12-17T02:14:47.920Z,100622.78
2022-12-17T02:17:40.204Z,100625.38
2022-12-17T02:20:41.678Z,100636.69
2022-12-17T02:23:42.830Z,100637.63
2022-12-17T02:26:35.827Z,100645.53
2022-12-17T02:29:28.010Z,100643.88
2022-12-17T02:32:14.107Z,100651.66
2022-12-17T02:35:05.177Z,100643.31
2022-12-17T02:37:53.455Z,100641.66
2022-12-17T02:40:42.499Z,100640.97
2022-12-17T02:43:30.065Z,100642.03
2022-12-17T02:46:26.169Z,100655.09
2022-12-17T02:49:12.421Z,100649.78
2022-12-17T02:51:59.283Z,100654.38
2022-12-17T02:54:48.688Z,100659.72
2022-12-17T02:57:34.568Z,100669.09
2022-12-17T03:00:20.311Z,100668.41
2022-12-17T03:03:07.384Z,100671.13
2022-12-17T03:05:53.308Z,100675.47
2022-12-17T03:08:39.252Z,100686.78
2022-12-17T03:11:25.016Z,100674.75
2022-12-17T03:14:11.056Z,100680.91
2022-12-17T03:16:57.911Z,100679.38
2022-12-17T03:19:44.956Z,100684.53
2022-12-17T03:22:30.993Z,100687.25
2022-12-17T03:25:16.911Z,100694.31
2022-12-17T03:28:02.832Z,100692.66
2022-12-17T03:30:49.475Z,100706.56
2022-12-17T03:33:35.803Z,100690.31
2022-12-17T03:36:23.747Z,100693.88
2022-12-17T03:39:09.850Z,100694.00
2022-12-17T03:41:55.755Z,100693.41
2022-12-17T03:44:41.583Z,100687.28
2022-12-17T03:47:27.650Z,100684.72
2022-12-17T03:50:13.516Z,100695.16
2022-12-17T03:53:00.714Z,100696.13
2022-12-17T03:55:45.874Z,100704.00
2022-12-17T03:58:31.767Z,100702.22
2022-12-17T04:01:17.909Z,100703.19
2022-12-17T04:04:03.779Z,100708.47
2022-12-17T04:06:49.672Z,100705.06
2022-12-17T04:09:37.160Z,100709.41
2022-12-17T04:12:22.930Z,100712.94
2022-12-17T04:15:08.832Z,100713.88
2022-12-17T04:17:54.864Z,100719.06
2022-12-17T04:20:40.819Z,100711.53
2022-12-17T04:23:26.798Z,100721.88
2022-12-17T04:26:14.137Z,100733.97
2022-12-17T04:29:00.129Z,100729.75
2022-12-17T04:31:46.040Z,100727.31
2022-12-17T04:34:31.867Z,100732.47
2022-12-17T04:37:17.860Z,100734.25
2022-12-17T04:40:03.838Z,100748.00
2022-12-17T04:42:50.884Z,100743.75
2022-12-17T04:45:36.745Z,100739.53
2022-12-17T04:48:24.776Z,100750.81
2022-12-17T04:51:10.945Z,100745.75
2022-12-17T04:53:53.299Z,100748.34
2022-12-17T04:56:39.556Z,100737.06
2022-12-17T04:59:26.479Z,100746.59
2022-12-17T05:02:12.552Z,100741.53
2022-12-17T05:04:58.710Z,100747.66
2022-12-17T05:07:44.722Z,100748.59
2022-12-17T05:10:30.879Z,100757.28
2022-12-17T05:13:17.085Z,100762.59
2022-12-17T05:16:06.960Z,100761.88
2022-12-17T05:18:53.083Z,100762.81
2022-12-17T05:21:47.492Z,100770.56
2022-12-17T05:24:33.216Z,100775.03
2022-12-17T05:27:19.004Z,100779.50
2022-12-17T05:30:04.966Z,100784.69
2022-12-17T05:32:51.976Z,100783.97
2022-12-17T05:35:38.046Z,100783.16
2022-12-17T05:38:24.820Z,100789.25
2022-12-17T05:41:11.311Z,100791.03
2022-12-17T05:43:57.145Z,100789.38
2022-12-17T05:46:43.251Z,100793.72
2022-12-17T05:49:30.229Z,100793.03
2022-12-17T05:52:16.115Z,100802.56
2022-12-17T05:55:01.929Z,100804.28
2022-12-17T05:57:50.469Z,100796.66
2022-12-17T06:00:39.036Z,100799.38
2022-12-17T06:03:25.098Z,100812.16
2022-12-17T06:06:16.217Z,100807.22
2022-12-17T06:09:02.004Z,100807.47
2022-12-17T06:11:47.192Z,100812.53
2022-12-17T06:14:33.115Z,100811.72
2022-12-17T06:17:19.086Z,100820.38
2022-12-17T06:20:04.999Z,100815.22
2022-12-17T06:22:51.961Z,100829.22
2022-12-17T06:25:38.000Z,100835.31
2022-12-17T06:28:23.819Z,100839.78
2022-12-17T06:31:21.528Z,100844.13
2022-12-17T06:34:07.446Z,100844.13
2022-12-17T06:36:53.339Z,100849.63
2022-12-17T06:39:40.450Z,100856.56
2022-12-17T06:42:26.578Z,100854.91
2022-12-17T06:45:12.543Z,100858.44
2022-12-17T06:47:58.456Z,100859.38
2022-12-17T06:50:44.386Z,100860.31
2022-12-17T06:53:30.240Z,100863.84
2022-12-17T06:56:18.457Z,100875.94
2022-12-17T06:59:04.304Z,100874.28
2022-12-17T07:01:50.310Z,100879.44
2022-12-17T07:04:36.407Z,100888.16
2022-12-17T07:07:22.148Z,100884.75
2022-12-17T07:10:12.288Z,100899.44
2022-12-17T07:13:01.510Z,100908.94
2022-12-17T07:15:47.448Z,100914.13
2022-12-17T07:18:33.336Z,100917.63
2022-12-17T07:21:19.330Z,100921.97
2022-12-17T07:24:05.268Z,100928.91
2022-12-17T07:26:51.056Z,100933.38
2022-12-17T07:29:38.101Z,100939.38
2022-12-17T07:32:24.295Z,100934.19
2022-12-17T07:35:10.144Z,100941.13
2022-12-17T07:37:56.058Z,100951.56
2022-12-17T07:40:41.983Z,100953.19
2022-12-17T07:43:31.769Z,100961.06
2022-12-17T07:46:18.885Z,100969.78
2022-12-17T07:49:17.219Z,100974.94
2022-12-17T07:52:04.915Z,100975.84
2022-12-17T07:54:50.616Z,100982.78
2022-12-17T07:57:44.866Z,100982.78
2022-12-17T08:00:49.400Z,100984.47
2022-12-17T08:03:37.053Z,100982.78
2022-12-17T08:06:23.938Z,100984.47
2022-12-17T08:09:09.967Z,100987.97
2022-12-17T08:11:55.873Z,100980.13
2022-12-17T08:14:38.076Z,100989.50
2022-12-17T08:17:24.003Z,100988.56
2022-12-17T08:20:11.353Z,100988.56
2022-12-17T08:22:53.652Z,100992.91
2022-12-17T08:25:44.885Z,100996.22
2022-12-17T08:31:37.349Z,100995.41
2022-12-17T08:34:23.723Z,101003.16
2022-12-17T08:37:11.256Z,101013.50
2022-12-17T08:39:57.097Z,101002.31
2022-12-17T08:42:43.013Z,101007.38
2022-12-17T08:45:29.401Z,101022.06
2022-12-17T08:48:22.377Z,101023.72
2022-12-17T08:51:08.415Z,101020.31
2022-12-17T08:53:56.105Z,101036.63
2022-12-17T08:56:41.815Z,101021.13
2022-12-17T08:59:27.759Z,101033.13
2022-12-17T09:02:13.783Z,101027.94
2022-12-17T09:04:59.686Z,101033.84
2022-12-17T09:07:45.672Z,101039.72
2022-12-17T09:10:32.640Z,101031.03
2022-12-17T09:13:20.976Z,101049.00
2022-12-17T09:16:13.550Z,101049.75
2022-12-17T09:19:00.038Z,101044.56
2022-12-17T09:21:46.970Z,101061.50
2022-12-17T09:24:32.842Z,101048.47
2022-12-17T09:27:20.030Z,101050.13
2022-12-17T09:30:05.916Z,101053.34
2022-12-17T09:32:51.791Z,101054.03
2022-12-17T09:35:38.012Z,101061.69
2022-12-17T09:38:30.130Z,101053.81
2022-12-17T09:41:21.618Z,101055.25
2022-12-17T09:44:18.013Z,101049.84
2022-12-17T09:47:13.412Z,101051.50
2022-12-17T09:49:59.800Z,101053.75
2022-12-17T09:52:52.022Z,101057.06
2022-12-17T09:55:42.096Z,101052.50
2022-12-17T09:58:38.498Z,101048.75
2022-12-17T10:01:34.663Z,101048.53
2022-12-17T10:04:21.743Z,101045.94
2022-12-17T10:07:09.141Z,101046.41
2022-12-17T10:09:55.915Z,101049.59
2022-12-17T10:12:43.232Z,101050.22
2022-12-17T10:15:33.849Z,101041.41
2022-12-17T10:18:26.905Z,101041.19
2022-12-17T10:21:17.365Z,101052.13
2022-12-17T10:24:03.258Z,101049.31
2022-12-17T10:26:51.502Z,101061.09
2022-12-17T10:29:43.868Z,101059.19
2022-12-17T10:32:41.728Z,101056.63
2022-12-17T10:35:37.506Z,101063.47
2022-12-17T10:38:31.491Z,101058.16
2022-12-17T10:41:17.483Z,101059.81
2022-12-17T10:44:03.527Z,101049.59
2022-12-17T10:46:51.930Z,101053.94
2022-12-17T10:49:40.536Z,101065.31
2022-12-17T10:52:42.412Z,101070.50
2022-12-17T10:55:42.170Z,101069.56
2022-12-17T10:58:33.471Z,101062.66
2022-12-17T11:01:21.158Z,101058.75
2022-12-17T11:04:10.871Z,101075.13
2022-12-17T11:06:59.767Z,101079.25
2022-12-17T11:10:08.759Z,101067.94
2022-12-17T11:13:01.159Z,101071.34
2022-12-17T11:15:53.306Z,101071.47
2022-12-17T11:18:44.679Z,101086.88
2022-12-17T11:21:35.052Z,101086.19
2022-12-17T11:24:22.904Z,101090.44
2022-12-17T11:27:15.279Z,101090.28
2022-12-17T11:30:01.125Z,101086.56
2022-12-17T11:33:17.121Z,101097.84
2022-12-17T11:36:11.104Z,101097.84
2022-12-17T11:39:00.539Z,101095.25
2022-12-17T11:42:08.084Z,101099.50
2022-12-17T11:45:12.287Z,101100.22
2022-12-17T11:48:08.813Z,101088.00
2022-12-17T11:51:04.380Z,101089.41
2022-12-17T11:54:06.282Z,101097.66
2022-12-17T11:56:57.247Z,101094.00
2022-12-17T11:59:53.280Z,101102.59
2022-12-17T12:03:03.799Z,101101.78
2022-12-17T12:06:02.598Z,101102.81
2022-12-17T12:08:51.924Z,101100.16
2022-12-17T12:11:46.804Z,101104.25
2022-12-17T12:14:47.916Z,101092.84
2022-12-17T12:17:57.988Z,101077.91
2022-12-17T12:21:02.804Z,101082.84
2022-12-17T12:24:03.853Z,101089.47
2022-12-17T12:26:58.715Z,101081.47
2022-12-17T12:29:52.358Z,101075.22
2022-12-17T12:32:47.274Z,101077.69
2022-12-17T12:35:40.256Z,101081.84
2022-12-17T12:38:33.139Z,101079.84
2022-12-17T12:41:32.983Z,101077.13
2022-12-17T12:44:26.033Z,101077.72
2022-12-17T12:47:17.636Z,101078.44
2022-12-17T12:50:11.017Z,101073.25
2022-12-17T12:52:58.327Z,101077.34
2022-12-17T12:55:56.925Z,101079.13
2022-12-17T12:58:45.953Z,101078.06
2022-12-17T13:01:31.935Z,101070.44
2022-12-17T13:04:16.779Z,101075.47
2022-12-17T13:06:50.745Z,101072.75
2022-12-17T13:09:49.324Z,101067.47
2022-12-17T13:12:35.682Z,101061.22
2022-12-17T13:15:30.256Z,101061.94
2022-12-17T13:18:17.870Z,101060.75
2022-12-17T13:21:01.037Z,101067.56
2022-12-17T13:23:35.991Z,101068.28
2022-12-17T13:26:23.294Z,101070.88
2022-12-17T13:29:12.718Z,101056.16
2022-12-17T13:32:03.992Z,101061.25
2022-12-17T13:34:48.109Z,101053.09
2022-12-17T13:37:39.796Z,101052.88
2022-12-17T13:40:26.496Z,101047.56
2022-12-17T13:42:56.259Z,101059.34
2022-12-17T13:45:27.384Z,101049.69
2022-12-17T13:48:00.266Z,101046.03
2022-12-17T13:50:34.810Z,101048.38
2022-12-17T13:53:12.026Z,101051.78
2022-12-17T13:55:40.551Z,101056.72
2022-12-17T13:58:24.533Z,101048.03
2022-12-17T14:00:53.043Z,101056.50
2022-12-17T14:03:43.138Z,101061.69
2022-12-17T14:06:13.356Z,101058.97
2022-12-17T14:08:42.188Z,101065.91
2022-12-17T14:11:30.064Z,101077.94
2022-12-17T14:14:03.534Z,101082.41
2022-12-17T14:16:32.297Z,101081.59
2022-12-17T14:19:01.394Z,101075.59
2022-12-17T14:21:31.134Z,101077.22
2022-12-17T14:24:00.003Z,101077.94
2022-12-17T14:26:28.481Z,101078.88
2022-12-17T14:28:58.977Z,101087.38
2022-12-17T14:31:29.721Z,101077.81
2022-12-17T14:34:07.476Z,101072.53
2022-12-17T14:36:38.067Z,101072.53
2022-12-17T14:39:18.169Z,101079.34
2022-12-17T14:42:04.609Z,101076.63
2022-12-17T14:44:34.935Z,101076.75
2022-12-17T14:47:16.925Z,101088.69
2022-12-17T14:49:56.979Z,101086.91
2022-12-17T14:52:37.567Z,101093.72
2022-12-17T14:55:39.344Z,101093.59
2022-12-17T14:58:22.240Z,101097.03
2022-12-17T15:00:55.612Z,101103.88
2022-12-17T15:03:28.657Z,101109.88
2022-12-17T15:06:00.799Z,101106.47
2022-12-17T15:08:33.417Z,101117.06
2022-12-17T15:11:02.230Z,101112.84
2022-12-17T15:13:30.909Z,101105.97
2022-12-17T15:16:00.817Z,101131.09
2022-12-17T15:18:29.345Z,101105.97
2022-12-17T15:20:57.723Z,101111.16
2022-12-17T15:23:26.643Z,101114.47
2022-12-17T15:25:56.001Z,101115.53
2022-12-17T15:28:28.385Z,101138.63
2022-12-17T15:30:56.892Z,101131.81
2022-12-17T15:33:26.691Z,101142.06
2022-12-17T15:35:58.075Z,101139.44
2022-12-17T15:38:26.462Z,101153.25
2022-12-17T15:40:55.230Z,101145.47
2022-12-17T15:43:22.613Z,101143.72
2022-12-17T15:45:53.075Z,101146.19
2022-12-17T15:48:23.687Z,101143.72
2022-12-17T15:50:53.385Z,101147.22
2022-12-17T15:53:21.747Z,101155.75
2022-12-17T15:56:01.483Z,101153.97
2022-12-17T15:58:29.929Z,101150.53
2022-12-17T16:00:58.564Z,101152.41
2022-12-17T16:03:26.998Z,101150.78
2022-12-17T16:05:56.715Z,101155.16
2022-12-17T16:08:25.085Z,101154.31
2022-12-17T16:10:53.432Z,101157.84
2022-12-17T16:13:21.740Z,101153.50
2022-12-17T16:16:03.398Z,101157.84
2022-12-17T16:18:32.824Z,101155.25
2022-12-17T16:21:05.738Z,101150.91
2022-12-17T16:23:34.802Z,101147.47
2022-12-17T16:26:06.373Z,101143.13
2022-12-17T16:28:36.794Z,101131.09
2022-12-17T16:31:08.454Z,101140.63
2022-12-17T16:33:38.801Z,101138.03
2022-12-17T16:36:12.548Z,101143.13
2022-12-17T16:38:45.555Z,101146.78
2022-12-17T16:41:14.982Z,101144.19
2022-12-17T16:43:43.853Z,101152.91
2022-12-17T16:46:28.284Z,101153.00
2022-12-17T16:48:59.139Z,101167.03
2022-12-17T16:51:29.918Z,101158.44
2022-12-17T16:53:59.005Z,101163.75
2022-12-17T16:56:31.110Z,101164.69
2022-12-17T16:59:05.456Z,101174.22
2022-12-17T17:01:33.932Z,101176.00
2022-12-17T17:04:02.551Z,101178.72
2022-12-17T17:06:34.103Z,101188.25
2022-12-17T17:09:05.365Z,101185.75
2022-12-17T17:11:33.797Z,101174.56
2022-12-17T17:14:02.189Z,101184.13
2022-12-17T17:16:31.341Z,101192.94
2022-12-17T17:18:59.732Z,101182.72
2022-12-17T17:21:32.439Z,101188.03
2022-12-17T17:24:02.539Z,101183.75
2022-12-17T17:26:33.576Z,101187.16
2022-12-17T17:29:02.444Z,101181.28
2022-12-17T17:34:19.300Z,101199.78
2022-12-17T17:36:49.042Z,101187.75
2022-12-17T17:39:17.380Z,101202.47
2022-12-17T17:41:45.770Z,101195.66
2022-12-17T17:44:15.114Z,101194.84
2022-12-17T17:46:43.721Z,101196.84
2022-12-17T17:49:12.660Z,101202.25
2022-12-17T17:54:33.609Z,101211.78
2022-12-17T17:57:02.404Z,101221.44
2022-12-17T17:59:33.742Z,101227.44
2022-12-17T18:02:03.735Z,101228.50
2022-12-17T18:04:32.927Z,101234.50
2022-12-17T18:07:25.125Z,101228.72
2022-12-17T18:09:51.012Z,101230.38
2022-12-17T18:12:37.036Z,101232.97
2022-12-17T18:15:15.789Z,101234.00
2022-12-17T18:17:47.630Z,101233.31
2022-12-17T18:20:16.827Z,101228.13
2022-12-17T18:22:46.653Z,101241.09
2022-12-17T18:25:17.780Z,101247.22
2022-12-17T18:27:46.399Z,101241.19
2022-12-17T18:30:16.326Z,101244.72
2022-12-17T18:32:44.940Z,101252.50
2022-12-17T18:35:13.519Z,101244.72
2022-12-17T18:37:42.222Z,101240.56
2022-12-17T18:40:11.978Z,101242.34
2022-12-17T18:42:59.022Z,101241.44
2022-12-17T18:45:27.362Z,101248.47
2022-12-17T18:47:55.752Z,101249.41
2022-12-17T18:50:24.103Z,101236.56
2022-12-17T18:52:52.529Z,101237.38
2022-12-17T18:55:20.881Z,101241.88
2022-12-17T18:57:50.659Z,101240.22
2022-12-17T19:00:19.699Z,101238.56
2022-12-17T19:02:48.175Z,101231.84
2022-12-17T19:05:16.979Z,101249.88
2022-12-17T19:07:45.366Z,101233.50
2022-12-17T19:10:13.816Z,101241.34
2022-12-17T19:12:42.221Z,101243.94
2022-12-17T19:15:12.339Z,101248.31
2022-12-17T19:17:40.739Z,101251.84
2022-12-17T19:20:10.958Z,101252.88
2022-12-17T19:22:39.330Z,101247.00
2022-12-17T19:25:08.193Z,101243.47
2022-12-17T19:27:36.570Z,101251.25
2022-12-17T19:30:06.333Z,101250.50
2022-12-17T19:32:36.055Z,101246.28
2022-12-17T19:35:04.788Z,101250.75
2022-12-17T19:37:33.125Z,101257.81
2022-12-17T19:40:01.496Z,101258.75
2022-12-17T19:42:36.792Z,101263.94
2022-12-17T19:45:06.808Z,101258.97
2022-12-17T19:47:36.534Z,101253.91
2022-12-17T19:50:06.038Z,101252.25
2022-12-17T19:52:34.386Z,101261.06
2022-12-17T19:55:03.031Z,101262.81
2022-12-17T19:57:31.756Z,101265.53
2022-12-17T20:00:00.150Z,101265.66
2022-12-17T20:02:32.857Z,101262.34
2022-12-17T20:05:03.004Z,101260.69
2022-12-17T20:07:31.373Z,101263.38
2022-12-17T20:09:59.723Z,101253.00
2022-12-17T20:12:28.023Z,101258.31
2022-12-17T20:14:56.807Z,101273.03
2022-12-17T20:17:26.112Z,101267.25
2022-12-17T20:19:56.386Z,101258.66
2022-12-17T20:22:27.772Z,101259.56
2022-12-17T20:24:56.085Z,101258.75
2022-12-17T20:27:24.528Z,101254.59
2022-12-17T20:29:52.892Z,101265.91
2022-12-17T20:32:21.461Z,101265.91
2022-12-17T20:34:50.393Z,101280.59
2022-12-17T20:37:21.881Z,101278.84
2022-12-17T20:39:51.738Z,101271.28
2022-12-17T20:42:22.251Z,101268.69
2022-12-17T20:44:53.555Z,101269.78
2022-12-17T20:47:23.937Z,101268.09
2022-12-17T20:49:52.261Z,101288.91
2022-12-17T20:52:20.794Z,101298.53
2022-12-17T20:54:49.499Z,101303.72
2022-12-17T20:57:20.993Z,101286.53
2022-12-17T20:59:49.475Z,101277.97
2022-12-17T21:02:17.954Z,101279.00
2022-12-17T21:04:46.670Z,101280.75
2022-12-17T21:07:15.048Z,101282.53
2022-12-17T21:09:43.426Z,101279.19
2022-12-17T21:12:13.541Z,101287.91
2022-12-17T21:14:43.321Z,101278.59
2022-12-17T21:17:11.951Z,101278.59
2022-12-17T21:19:42.415Z,101284.00
2022-12-17T21:22:10.769Z,101290.91
2022-12-17T21:24:39.702Z,101297.97
2022-12-17T21:27:14.272Z,101308.31
2022-12-17T21:29:44.521Z,101307.59
2022-12-17T21:32:12.908Z,101314.53
2022-12-17T21:34:41.450Z,101312.06
2022-12-17T21:37:11.290Z,101304.38
2022-12-17T21:39:39.821Z,101306.16
2022-12-17T21:42:25.948Z,101300.28
2022-12-17T21:44:55.660Z,101302.25
2022-12-17T21:47:24.555Z,101306.81
2022-12-17T21:49:52.982Z,101310.09
2022-12-17T21:52:21.423Z,101296.34
2022-12-17T21:54:49.801Z,101294.78
2022-12-17T21:57:18.196Z,101302.53
2022-12-17T21:59:46.589Z,101303.47
2022-12-17T22:02:16.478Z,101318.19
2022-12-17T22:04:45.141Z,101318.31
2022-12-17T22:07:17.203Z,101316.53
2022-12-17T22:09:50.879Z,101311.56
2022-12-17T22:12:56.094Z,101299.66
2022-12-17T22:15:25.774Z,101306.59
2022-12-17T22:17:58.525Z,101302.47
2022-12-17T22:20:27.852Z,101301.53
2022-12-17T22:22:56.303Z,101304.22
2022-12-17T22:25:24.929Z,101296.47
2022-12-17T22:27:53.508Z,101300.00
2022-12-17T22:30:39.586Z,101301.00
2022-12-17T22:33:30.083Z,101307.22
2022-12-17T22:37:01.836Z,101306.50
2022-12-17T22:43:48.354Z,101308.28
2022-12-17T22:44:37.656Z,101297.19
2022-12-17T22:44:53.321Z,101302.56
2022-12-17T22:47:22.422Z,101309.50
2022-12-17T22:49:52.212Z,101312.22
2022-12-17T22:52:21.483Z,101315.69
2022-12-17T22:54:50.157Z,101308.88
2022-12-17T22:57:36.364Z,101309.63
2022-12-17T23:00:14.114Z,101313.34
2022-12-17T23:02:42.521Z,101316.03
2022-12-17T23:05:12.376Z,101305.78
2022-12-17T23:07:40.747Z,101310.03
2022-12-17T23:10:10.134Z,101311.78
2022-12-17T23:12:54.240Z,101310.16
2022-12-17T23:15:28.557Z,101314.56
2022-12-17T23:17:59.713Z,101309.53
2022-12-17T23:20:32.116Z,101302.66
2022-12-17T23:23:01.092Z,101301.84
2022-12-17T23:25:30.379Z,101307.03
2022-12-17T23:27:58.835Z,101312.19
2022-12-17T23:30:27.616Z,101313.25
2022-12-17T23:32:55.994Z,101302.91
2022-12-17T23:35:24.446Z,101308.97
2022-12-17T23:37:54.166Z,101315.09
2022-12-17T23:40:23.132Z,101324.59
2022-12-17T23:42:51.497Z,101319.53
2022-12-17T23:45:19.983Z,101314.34
2022-12-17T23:47:48.324Z,101309.31
2022-12-17T23:50:16.736Z,101311.88
2022-12-17T23:52:45.068Z,101313.66
2022-12-17T23:55:14.790Z,101318.81
2022-12-17T23:57:43.145Z,101324.94
